Time;durP1;ratioP1;P1;durP2;ratioP2;P2;SDS_P1;SDS_P2;PMS_P1;PMS_P2;Temp;Humidity;BMP_temperature;BMP_pressure;BME280_temperature;BME280_humidity;BME280_pressure;Samples;Min_cycle;Max_cycle;Signal;HPM_P1;HPM_P2
2022/10/12 00:00:47;;;;;;;35.35;13.10;;;;;;;;;;8533797;27;20075;-89
2022/10/12 00:05:07;;;;;;;31.48;13.57;;;;;;;;;;8530292;27;20194;-90
2022/10/12 00:09:10;;;;;;;33.38;14.02;;;;;;;;;;8523651;27;20477;-89
2022/10/12 00:13:12;;;;;;;27.30;14.02;;;;;;;;;;8525419;27;20054;-89
2022/10/12 00:17:16;;;;;;;30.73;13.35;;;;;;;;;;8521229;27;20077;-91
2022/10/12 00:21:19;;;;;;;31.52;13.93;;;;;;;;;;8516778;27;20117;-89
2022/10/12 00:25:22;;;;;;;29.20;14.45;;;;;;;;;;8520609;27;20042;-90
2022/10/12 00:29:24;;;;;;;33.53;14.40;;;;;;;;;;8514190;27;20042;-90
2022/10/12 00:33:29;;;;;;;41.25;16.33;;;;;;;;;;8506686;27;20046;-90
2022/10/12 00:37:32;;;;;;;36.25;14.65;;;;;;;;;;8510387;27;20493;-90
2022/10/12 00:41:37;;;;;;;35.17;14.90;;;;;;;;;;8502516;27;20043;-90
2022/10/12 00:45:40;;;;;;;35.90;15.10;;;;;;;;;;8510785;27;20043;-90
2022/10/12 00:49:47;;;;;;;31.63;14.30;;;;;;;;;;8507291;27;20432;-88
2022/10/12 00:53:57;;;;;;;33.00;14.63;;;;;;;;;;8484086;27;20043;-90
2022/10/12 00:58:00;;;;;;;36.38;13.00;;;;;;;;;;8506905;27;20062;-89
2022/10/12 01:02:03;;;;;;;36.22;13.88;;;;;;;;;;8498674;27;20114;-88
2022/10/12 01:06:10;;;;;;;44.72;16.38;;;;;;;;;;8499068;27;20074;-89
2022/10/12 01:10:13;;;;;;;38.25;16.23;;;;;;;;;;8496495;27;20051;-88
2022/10/12 01:14:17;;;;;;;36.60;15.98;;;;;;;;;;8502183;27;20043;-88
2022/10/12 01:18:24;;;;;;;40.75;16.17;;;;;;;;;;8508035;27;20043;-90
2022/10/12 01:22:34;;;;;;;34.53;16.17;;;;;;;;;;8507449;27;20047;-89
2022/10/12 01:27:00;;;;;;;37.45;16.85;;;;;;;;;;8515317;27;20047;-90
2022/10/12 01:31:12;;;;;;;36.60;15.57;;;;;;;;;;8530916;27;20091;-87
2022/10/12 01:35:20;;;;;;;33.58;15.73;;;;;;;;;;8537362;27;20485;-89
2022/10/12 01:39:31;;;;;;;35.85;15.88;;;;;;;;;;8526520;27;20474;-90
2022/10/12 01:43:35;;;;;;;32.63;15.60;;;;;;;;;;8537382;27;20485;-88
2022/10/12 01:47:40;;;;;;;33.28;15.05;;;;;;;;;;8535074;27;20041;-88
2022/10/12 01:52:11;;;;;;;34.40;16.05;;;;;;;;;;8537133;27;20043;-88
2022/10/12 01:56:20;;;;;;;33.33;15.93;;;;;;;;;;8537452;27;20071;-90
2022/10/12 02:00:22;;;;;;;39.20;16.20;;;;;;;;;;8526029;27;20063;-88
2022/10/12 02:04:31;;;;;;;42.70;17.88;;;;;;;;;;8531450;27;20462;-89
2022/10/12 02:08:37;;;;;;;38.03;17.52;;;;;;;;;;8532730;27;20039;-89
2022/10/12 02:12:43;;;;;;;55.42;15.00;;;;;;;;;;8522645;27;20039;-89
2022/10/12 02:16:54;;;;;;;34.35;14.82;;;;;;;;;;8510129;27;20460;-89
2022/10/12 02:21:00;;;;;;;34.77;15.83;;;;;;;;;;8534459;27;20414;-89
2022/10/12 02:25:04;;;;;;;39.38;16.63;;;;;;;;;;8536256;27;20300;-89
2022/10/12 02:29:13;;;;;;;37.80;16.40;;;;;;;;;;8536365;27;20099;-90
2022/10/12 02:33:24;;;;;;;35.53;15.82;;;;;;;;;;8535132;27;20534;-89
2022/10/12 02:37:36;;;;;;;39.35;16.02;;;;;;;;;;8535909;27;20475;-89
2022/10/12 02:41:43;;;;;;;37.28;17.27;;;;;;;;;;8522167;27;20375;-90
2022/10/12 02:45:48;;;;;;;37.13;16.73;;;;;;;;;;8523192;27;20043;-89
2022/10/12 02:49:52;;;;;;;37.50;16.23;;;;;;;;;;8533131;27;20039;-89
2022/10/12 02:53:56;;;;;;;36.05;17.50;;;;;;;;;;8535182;27;20046;-89
2022/10/12 02:57:58;;;;;;;36.53;15.95;;;;;;;;;;8533573;27;20084;-88
2022/10/12 03:02:01;;;;;;;33.65;16.35;;;;;;;;;;8533963;27;20069;-88
2022/10/12 03:06:03;;;;;;;43.28;17.88;;;;;;;;;;8531450;27;20058;-89
2022/10/12 03:10:08;;;;;;;40.67;16.65;;;;;;;;;;8535074;27;20046;-89
2022/10/12 03:14:11;;;;;;;35.95;15.68;;;;;;;;;;8534573;27;20046;-89
2022/10/12 03:18:14;;;;;;;42.90;16.92;;;;;;;;;;8534626;27;20046;-89
2022/10/12 03:22:16;;;;;;;39.05;17.80;;;;;;;;;;8532523;27;20039;-89
2022/10/12 03:26:20;;;;;;;38.95;16.70;;;;;;;;;;8525353;27;20038;-89
2022/10/12 03:30:22;;;;;;;48.90;20.35;;;;;;;;;;8534135;27;20050;-89
2022/10/12 03:34:25;;;;;;;42.50;21.08;;;;;;;;;;8533689;27;20390;-88
2022/10/12 03:38:28;;;;;;;38.33;18.77;;;;;;;;;;8533614;27;20051;-88
2022/10/12 03:42:33;;;;;;;41.08;18.42;;;;;;;;;;8533128;27;20039;-88
2022/10/12 03:46:35;;;;;;;40.85;17.42;;;;;;;;;;8531816;27;20417;-88
2022/10/12 03:50:39;;;;;;;39.03;17.83;;;;;;;;;;8532739;27;20054;-87
2022/10/12 03:54:41;;;;;;;41.42;16.77;;;;;;;;;;8532588;27;20042;-89
2022/10/12 03:58:45;;;;;;;35.70;16.75;;;;;;;;;;8532462;27;20038;-87
2022/10/12 04:02:47;;;;;;;38.13;16.48;;;;;;;;;;8524725;27;20043;-88
2022/10/12 04:06:50;;;;;;;35.30;14.38;;;;;;;;;;8521705;27;20409;-87
2022/10/12 04:10:52;;;;;;;36.45;14.68;;;;;;;;;;8531461;27;20402;-88
2022/10/12 04:14:56;;;;;;;37.63;17.48;;;;;;;;;;8531483;27;20045;-87
2022/10/12 04:18:59;;;;;;;42.45;17.60;;;;;;;;;;8531735;27;20078;-88
2022/10/12 04:23:01;;;;;;;31.58;15.27;;;;;;;;;;8531466;27;20039;-88
2022/10/12 04:27:04;;;;;;;40.75;19.13;;;;;;;;;;8531342;27;20091;-88
2022/10/12 04:31:08;;;;;;;36.60;16.25;;;;;;;;;;8531601;27;20052;-89
2022/10/12 04:35:11;;;;;;;33.58;17.77;;;;;;;;;;8531558;27;20063;-89
2022/10/12 04:39:14;;;;;;;41.45;16.35;;;;;;;;;;8531050;27;20617;-88
2022/10/12 04:43:17;;;;;;;38.97;16.55;;;;;;;;;;8523506;27;20112;-87
2022/10/12 04:47:21;;;;;;;40.58;16.92;;;;;;;;;;8527402;27;20553;-89
2022/10/12 04:51:23;;;;;;;43.97;18.23;;;;;;;;;;8530951;27;20051;-89
2022/10/12 04:55:26;;;;;;;33.03;15.85;;;;;;;;;;8531334;27;20049;-88
2022/10/12 04:59:31;;;;;;;32.55;14.57;;;;;;;;;;8533212;27;20117;-90
2022/10/12 05:03:36;;;;;;;31.48;14.40;;;;;;;;;;8533023;27;20043;-89
2022/10/12 05:07:39;;;;;;;39.10;16.48;;;;;;;;;;8515927;27;20050;-89
2022/10/12 05:11:42;;;;;;;35.08;15.10;;;;;;;;;;8531294;27;20042;-88
2022/10/12 05:15:45;;;;;;;50.45;19.30;;;;;;;;;;8519567;27;20482;-90
2022/10/12 05:19:49;;;;;;;38.83;21.10;;;;;;;;;;8523808;27;20047;-88
2022/10/12 05:23:52;;;;;;;734.10;122.10;;;;;;;;;;8524091;27;20039;-87
2022/10/12 05:27:55;;;;;;;676.63;104.70;;;;;;;;;;8513476;27;20372;-90
2022/10/12 05:31:57;;;;;;;343.48;57.97;;;;;;;;;;8524451;27;20070;-87
2022/10/12 05:36:01;;;;;;;621.95;129.75;;;;;;;;;;8530011;27;20054;-88
2022/10/12 05:40:04;;;;;;;401.13;109.88;;;;;;;;;;8526553;27;20039;-88
2022/10/12 05:44:07;;;;;;;123.78;46.38;;;;;;;;;;8529946;27;20534;-88
2022/10/12 05:48:10;;;;;;;134.77;49.63;;;;;;;;;;8527681;27;20070;-88
2022/10/12 05:52:14;;;;;;;250.40;86.60;;;;;;;;;;8517813;27;20041;-88
2022/10/12 05:56:18;;;;;;;131.35;49.78;;;;;;;;;;8529801;27;20470;-89
2022/10/12 06:00:27;;;;;;;135.55;58.45;;;;;;;;;;8506374;27;20057;-87
2022/10/12 06:04:36;;;;;;;169.57;65.35;;;;;;;;;;8516645;27;20095;-87
2022/10/12 06:08:40;;;;;;;135.02;56.97;;;;;;;;;;8526036;27;20039;-88
2022/10/12 06:12:48;;;;;;;108.88;48.67;;;;;;;;;;8524890;27;20528;-87
2022/10/12 06:16:54;;;;;;;94.10;39.00;;;;;;;;;;8526450;27;20070;-88
2022/10/12 06:21:02;;;;;;;106.78;48.40;;;;;;;;;;8513610;27;20034;-87
2022/10/12 06:25:20;;;;;;;55.92;27.58;;;;;;;;;;8515350;27;20107;-89
2022/10/12 06:29:26;;;;;;;45.30;24.58;;;;;;;;;;8507953;27;20069;-90
2022/10/12 06:33:29;;;;;;;22.75;13.48;;;;;;;;;;8511874;27;20062;-88
2022/10/12 06:37:32;;;;;;;31.75;19.65;;;;;;;;;;8520173;27;20034;-91
2022/10/12 06:41:38;;;;;;;25.17;14.93;;;;;;;;;;8529076;27;20043;-92
2022/10/12 06:45:40;;;;;;;19.00;12.50;;;;;;;;;;8514048;27;20047;-91
2022/10/12 06:49:43;;;;;;;36.92;24.10;;;;;;;;;;8522645;27;20065;-90
2022/10/12 06:53:46;;;;;;;48.50;28.27;;;;;;;;;;8534183;27;20046;-90
2022/10/12 06:57:50;;;;;;;31.23;22.05;;;;;;;;;;8529889;27;20382;-90
2022/10/12 07:01:52;;;;;;;48.67;33.25;;;;;;;;;;8522852;27;20042;-91
2022/10/12 07:05:55;;;;;;;28.20;20.77;;;;;;;;;;8502858;27;20057;-92
2022/10/12 07:09:57;;;;;;;37.22;26.50;;;;;;;;;;8516211;27;20436;-90
2022/10/12 07:14:01;;;;;;;48.05;33.50;;;;;;;;;;8510804;27;20043;-92
2022/10/12 07:18:04;;;;;;;42.05;28.85;;;;;;;;;;8521711;27;20049;-89
2022/10/12 07:22:07;;;;;;;28.40;20.80;;;;;;;;;;8512377;27;20047;-91
2022/10/12 07:26:09;;;;;;;20.35;14.40;;;;;;;;;;8508870;27;20051;-91
2022/10/12 07:30:14;;;;;;;23.33;18.90;;;;;;;;;;8512252;27;20054;-91
2022/10/12 07:34:16;;;;;;;21.58;15.00;;;;;;;;;;8514232;27;20050;-90
2022/10/12 07:38:19;;;;;;;22.98;16.73;;;;;;;;;;8516995;27;20055;-90
2022/10/12 07:42:21;;;;;;;27.55;18.77;;;;;;;;;;8509479;27;20477;-90
2022/10/12 07:46:26;;;;;;;25.77;19.25;;;;;;;;;;8521853;27;20053;-90
2022/10/12 07:50:28;;;;;;;22.20;13.05;;;;;;;;;;8507163;27;20051;-91
2022/10/12 07:54:32;;;;;;;26.05;16.77;;;;;;;;;;8521788;27;20043;-89
2022/10/12 07:58:35;;;;;;;27.65;20.92;;;;;;;;;;8529556;27;20034;-90
2022/10/12 08:02:41;;;;;;;27.52;17.05;;;;;;;;;;8521588;27;20400;-91
2022/10/12 08:06:47;;;;;;;28.70;18.80;;;;;;;;;;8512970;27;20137;-90
2022/10/12 08:10:51;;;;;;;34.40;17.88;;;;;;;;;;8495261;27;20046;-91
2022/10/12 08:15:02;;;;;;;20.55;9.52;;;;;;;;;;8507079;27;20535;-90
2022/10/12 08:19:10;;;;;;;16.02;8.45;;;;;;;;;;8526929;27;20043;-90
2022/10/12 08:23:13;;;;;;;18.65;9.90;;;;;;;;;;8515156;27;20072;-90
2022/10/12 08:27:15;;;;;;;17.77;9.13;;;;;;;;;;8515140;27;20054;-90
2022/10/12 08:31:18;;;;;;;21.88;12.30;;;;;;;;;;8507570;27;20050;-90
2022/10/12 08:35:22;;;;;;;17.83;9.07;;;;;;;;;;8504744;27;20447;-90
2022/10/12 08:39:25;;;;;;;17.20;7.90;;;;;;;;;;8498292;27;20049;-91
2022/10/12 08:43:40;;;;;;;18.90;8.27;;;;;;;;;;8513204;27;20391;-90
2022/10/12 08:47:46;;;;;;;18.00;8.45;;;;;;;;;;8515476;27;20075;-90
2022/10/12 08:51:53;;;;;;;20.42;8.60;;;;;;;;;;8511763;27;20066;-90
2022/10/12 08:55:57;;;;;;;21.17;8.88;;;;;;;;;;8520050;27;20115;-93
2022/10/12 09:00:01;;;;;;;19.17;8.15;;;;;;;;;;8496284;27;20070;-94
2022/10/12 09:04:16;;;;;;;20.85;7.88;;;;;;;;;;8519092;27;20759;-93
2022/10/12 09:08:30;;;;;;;18.67;7.93;;;;;;;;;;8530750;27;20077;-93
2022/10/12 09:12:44;;;;;;;19.88;7.70;;;;;;;;;;8527081;27;20130;-92
2022/10/12 09:16:49;;;;;;;14.60;6.78;;;;;;;;;;8511033;27;20500;-94
2022/10/12 09:20:53;;;;;;;15.10;6.22;;;;;;;;;;8513939;27;20386;-90
2022/10/12 09:24:59;;;;;;;18.33;6.97;;;;;;;;;;8519067;27;20088;-91
2022/10/12 09:29:17;;;;;;;17.65;7.28;;;;;;;;;;8510250;27;20051;-89
2022/10/12 09:33:34;;;;;;;14.98;6.00;;;;;;;;;;8509285;27;20042;-91
2022/10/12 09:37:37;;;;;;;14.75;7.75;;;;;;;;;;8521855;27;20086;-91
2022/10/12 09:41:43;;;;;;;21.02;8.25;;;;;;;;;;8513584;27;20497;-92
2022/10/12 09:45:47;;;;;;;16.83;7.30;;;;;;;;;;8519381;27;20043;-92
2022/10/12 09:49:52;;;;;;;11.68;4.60;;;;;;;;;;8498881;27;20465;-91
2022/10/12 09:53:57;;;;;;;12.25;4.70;;;;;;;;;;8498607;27;20061;-90
2022/10/12 09:58:05;;;;;;;8.80;2.97;;;;;;;;;;8500626;27;20060;-89
2022/10/12 10:02:15;;;;;;;8.60;3.33;;;;;;;;;;8518935;27;20053;-91
2022/10/12 10:06:24;;;;;;;6.83;2.20;;;;;;;;;;8515849;27;20054;-90
2022/10/12 10:10:26;;;;;;;8.73;2.65;;;;;;;;;;8531784;27;20051;-91
2022/10/12 10:14:31;;;;;;;12.43;3.13;;;;;;;;;;8517119;27;20046;-89
2022/10/12 10:18:37;;;;;;;9.23;3.40;;;;;;;;;;8519600;27;20117;-89
2022/10/12 10:22:47;;;;;;;12.77;3.42;;;;;;;;;;8508556;27;20646;-90
2022/10/12 10:26:54;;;;;;;8.18;2.92;;;;;;;;;;8506879;27;20040;-89
2022/10/12 10:31:01;;;;;;;10.98;3.15;;;;;;;;;;8514525;27;20576;-90
2022/10/12 10:35:06;;;;;;;12.70;3.72;;;;;;;;;;8529257;27;20475;-89
2022/10/12 10:39:25;;;;;;;9.68;3.08;;;;;;;;;;8516268;27;20045;-89
2022/10/12 10:43:29;;;;;;;10.88;4.20;;;;;;;;;;8504667;27;20661;-89
2022/10/12 10:47:45;;;;;;;10.07;3.38;;;;;;;;;;8519734;27;20054;-90
2022/10/12 10:51:52;;;;;;;13.35;3.00;;;;;;;;;;8501396;27;20162;-87
2022/10/12 10:56:00;;;;;;;10.52;3.50;;;;;;;;;;8505217;27;20773;-90
2022/10/12 11:00:07;;;;;;;9.90;3.10;;;;;;;;;;8517616;27;20651;-89
2022/10/12 11:04:19;;;;;;;8.63;2.58;;;;;;;;;;8501125;27;20684;-90
2022/10/12 11:08:25;;;;;;;10.25;3.22;;;;;;;;;;8505213;27;20043;-89
2022/10/12 11:12:32;;;;;;;8.35;2.33;;;;;;;;;;8505591;27;20457;-89
2022/10/12 11:16:39;;;;;;;5.30;2.20;;;;;;;;;;8494105;27;20444;-89
2022/10/12 11:20:59;;;;;;;6.75;2.17;;;;;;;;;;8509939;27;20042;-90
2022/10/12 11:25:08;;;;;;;10.32;2.20;;;;;;;;;;8504930;27;20062;-90
2022/10/12 11:29:13;;;;;;;10.60;2.80;;;;;;;;;;8530752;27;20431;-89
2022/10/12 11:33:22;;;;;;;6.82;2.35;;;;;;;;;;8525976;27;20474;-89
2022/10/12 11:37:33;;;;;;;5.78;3.08;;;;;;;;;;8510656;27;20046;-90
2022/10/12 11:41:44;;;;;;;6.13;2.38;;;;;;;;;;8519150;27;20450;-90
2022/10/12 11:45:51;;;;;;;13.77;4.17;;;;;;;;;;8519302;27;20038;-91
2022/10/12 11:49:58;;;;;;;10.77;3.13;;;;;;;;;;8530625;27;20288;-91
2022/10/12 11:54:11;;;;;;;14.55;4.90;;;;;;;;;;8521167;27;20035;-90
2022/10/12 11:58:19;;;;;;;10.27;4.50;;;;;;;;;;8531723;27;20046;-89
2022/10/12 12:02:27;;;;;;;13.63;4.03;;;;;;;;;;8528611;27;20375;-90
2022/10/12 12:06:46;;;;;;;11.18;3.72;;;;;;;;;;8522930;27;20486;-89
2022/10/12 12:11:04;;;;;;;15.27;4.40;;;;;;;;;;8518689;27;20478;-91
2022/10/12 12:15:20;;;;;;;14.25;3.50;;;;;;;;;;8520172;27;20054;-90
2022/10/12 12:19:37;;;;;;;8.85;3.17;;;;;;;;;;8521454;27;20048;-89
2022/10/12 12:23:43;;;;;;;13.23;3.88;;;;;;;;;;8516598;27;20390;-90
2022/10/12 12:27:51;;;;;;;12.35;3.88;;;;;;;;;;8512806;27;20114;-92
2022/10/12 12:31:57;;;;;;;7.30;3.20;;;;;;;;;;8517995;27;20484;-91
2022/10/12 12:36:02;;;;;;;10.43;4.50;;;;;;;;;;8528402;27;20117;-90
2022/10/12 12:40:07;;;;;;;13.25;4.93;;;;;;;;;;8532219;27;20070;-90
2022/10/12 12:44:39;;;;;;;9.27;3.35;;;;;;;;;;8527189;27;20047;-92
2022/10/12 12:49:03;;;;;;;9.32;3.45;;;;;;;;;;8519785;27;20066;-92
2022/10/12 12:53:14;;;;;;;8.13;3.08;;;;;;;;;;8525256;27;20043;-91
2022/10/12 12:57:34;;;;;;;16.98;4.97;;;;;;;;;;8519778;27;20046;-90
2022/10/12 13:02:10;;;;;;;10.45;3.47;;;;;;;;;;8487948;27;20553;-90
2022/10/12 13:06:52;;;;;;;8.52;2.38;;;;;;;;;;8499515;27;20082;-90
2022/10/12 13:11:38;;;;;;;9.45;3.00;;;;;;;;;;8521212;27;20039;-89
2022/10/12 13:15:56;;;;;;;8.60;2.42;;;;;;;;;;8472923;27;20046;-90
2022/10/12 13:20:06;;;;;;;9.40;2.25;;;;;;;;;;8527299;27;20039;-88
2022/10/12 13:24:16;;;;;;;10.30;3.65;;;;;;;;;;8528117;27;20517;-88
2022/10/12 13:28:36;;;;;;;9.75;2.50;;;;;;;;;;8516204;27;20071;-89
2022/10/12 13:32:46;;;;;;;5.40;2.10;;;;;;;;;;8506414;27;20070;-88
2022/10/12 13:36:57;;;;;;;8.02;2.20;;;;;;;;;;8507024;27;20054;-89
2022/10/12 13:41:11;;;;;;;10.68;2.85;;;;;;;;;;8497268;27;20488;-87
2022/10/12 13:45:17;;;;;;;9.50;3.22;;;;;;;;;;8496032;27;20046;-90
2022/10/12 13:49:25;;;;;;;12.70;6.20;;;;;;;;;;8506112;27;20103;-89
2022/10/12 13:53:43;;;;;;;7.72;2.38;;;;;;;;;;8507417;27;20039;-89
2022/10/12 13:58:05;;;;;;;6.43;2.15;;;;;;;;;;8491267;27;20122;-90
2022/10/12 14:02:24;;;;;;;7.38;2.22;;;;;;;;;;8508273;27;20054;-89
2022/10/12 14:07:09;;;;;;;8.55;3.70;;;;;;;;;;8648997;22;20076;-89
2022/10/12 14:11:17;;;;;;;7.45;3.25;;;;;;;;;;8346391;28;20060;-89
2022/10/12 14:19:50;;;;;;;15.40;8.50;;;;;;;;;;8349303;28;20052;-90
2022/10/12 14:24:02;;;;;;;19.15;2.40;;;;;;;;;;8347175;28;20076;-90
2022/10/12 14:28:36;;;;;;;12.82;2.45;;;;;;;;;;8346978;28;20083;-90
2022/10/12 14:33:18;;;;;;;9.32;3.13;;;;;;;;;;8332441;28;20494;-90
2022/10/12 14:37:59;;;;;;;5.68;2.40;;;;;;;;;;8335724;28;20049;-88
2022/10/12 14:42:06;;;;;;;5.57;2.58;;;;;;;;;;8353906;28;20564;-89
2022/10/12 14:46:16;;;;;;;9.35;2.97;;;;;;;;;;8353309;28;20056;-88
2022/10/12 14:50:26;;;;;;;13.77;3.45;;;;;;;;;;8362294;28;20552;-88
2022/10/12 14:54:37;;;;;;;7.72;3.38;;;;;;;;;;8362452;28;20040;-90
2022/10/12 14:58:40;;;;;;;12.35;3.00;;;;;;;;;;8357863;28;20411;-89
2022/10/12 15:02:45;;;;;;;5.47;2.78;;;;;;;;;;8360809;28;20048;-90
2022/10/12 15:06:47;;;;;;;12.15;3.55;;;;;;;;;;8353435;28;20143;-89
2022/10/12 15:10:51;;;;;;;9.23;3.53;;;;;;;;;;8353566;28;20045;-90
2022/10/12 15:14:55;;;;;;;19.85;5.45;;;;;;;;;;8358156;28;20040;-90
2022/10/12 15:18:59;;;;;;;19.27;9.13;;;;;;;;;;8360158;28;20055;-89
2022/10/12 15:23:03;;;;;;;20.63;10.63;;;;;;;;;;8364006;28;20469;-90
2022/10/12 15:27:05;;;;;;;19.67;10.57;;;;;;;;;;8363685;28;20080;-88
2022/10/12 15:31:10;;;;;;;22.85;10.30;;;;;;;;;;8356986;28;20041;-88
2022/10/12 15:35:24;;;;;;;19.42;9.02;;;;;;;;;;8358318;28;20182;-87
2022/10/12 15:39:32;;;;;;;15.05;7.32;;;;;;;;;;8330842;28;20060;-87
2022/10/12 15:43:46;;;;;;;19.67;7.32;;;;;;;;;;8359356;28;20048;-88
2022/10/12 15:47:51;;;;;;;22.55;8.65;;;;;;;;;;8355269;28;20111;-86
2022/10/12 15:52:02;;;;;;;15.07;7.35;;;;;;;;;;8350618;28;20044;-88
2022/10/12 15:56:11;;;;;;;15.23;7.32;;;;;;;;;;8329900;28;20040;-89
2022/10/12 16:00:16;;;;;;;16.27;5.70;;;;;;;;;;8358431;28;20118;-90
2022/10/12 16:04:19;;;;;;;12.63;4.70;;;;;;;;;;8350149;28;20187;-90
2022/10/12 16:08:24;;;;;;;16.30;5.07;;;;;;;;;;8356137;28;20072;-89
2022/10/12 16:12:26;;;;;;;12.20;4.18;;;;;;;;;;8358734;28;20048;-89
2022/10/12 16:16:31;;;;;;;7.03;3.58;;;;;;;;;;8347360;28;20136;-88
2022/10/12 16:20:37;;;;;;;13.98;4.38;;;;;;;;;;8339608;28;20547;-89
2022/10/12 16:24:42;;;;;;;11.77;4.53;;;;;;;;;;8342137;28;20127;-90
2022/10/12 16:28:45;;;;;;;15.82;4.05;;;;;;;;;;8353848;28;20060;-88
2022/10/12 16:32:47;;;;;;;16.90;7.47;;;;;;;;;;8353038;28;20045;-89
2022/10/12 16:36:50;;;;;;;53.03;24.20;;;;;;;;;;8357145;28;20041;-89
2022/10/12 16:40:54;;;;;;;55.78;22.90;;;;;;;;;;8354870;28;20049;-90
2022/10/12 16:44:56;;;;;;;21.38;9.85;;;;;;;;;;8348299;28;20489;-87
2022/10/12 16:48:59;;;;;;;45.38;22.35;;;;;;;;;;8344390;28;20072;-88
2022/10/12 16:53:01;;;;;;;45.92;20.65;;;;;;;;;;8342054;28;20095;-88
2022/10/12 16:57:06;;;;;;;98.38;37.95;;;;;;;;;;8357385;28;20041;-88
2022/10/12 17:01:10;;;;;;;61.38;25.13;;;;;;;;;;8353953;28;20582;-88
2022/10/12 17:05:15;;;;;;;79.50;35.28;;;;;;;;;;8349703;28;20724;-89
2022/10/12 17:09:18;;;;;;;273.20;81.20;;;;;;;;;;8353320;28;20080;-88
2022/10/12 17:13:22;;;;;;;243.85;72.45;;;;;;;;;;8356006;28;20048;-89
2022/10/12 17:17:25;;;;;;;93.97;33.90;;;;;;;;;;8349398;28;20583;-88
2022/10/12 17:21:28;;;;;;;149.45;51.40;;;;;;;;;;8343040;28;20040;-88
2022/10/12 17:25:30;;;;;;;51.67;19.70;;;;;;;;;;8347141;28;20045;-87
2022/10/12 17:29:38;;;;;;;33.00;16.35;;;;;;;;;;8351341;28;20094;-88
2022/10/12 17:33:40;;;;;;;36.55;13.98;;;;;;;;;;8354599;28;20057;-88
2022/10/12 17:37:45;;;;;;;21.80;11.00;;;;;;;;;;8345155;28;20041;-88
2022/10/12 17:41:49;;;;;;;31.17;13.52;;;;;;;;;;8351480;28;20044;-87
2022/10/12 17:45:54;;;;;;;69.60;23.38;;;;;;;;;;8354250;28;20056;-88
2022/10/12 17:49:56;;;;;;;91.10;30.98;;;;;;;;;;8355161;28;20056;-88
2022/10/12 17:54:00;;;;;;;84.13;29.40;;;;;;;;;;8360297;28;20041;-87
2022/10/12 17:58:02;;;;;;;61.15;22.77;;;;;;;;;;8358780;28;20460;-87
2022/10/12 18:02:24;;;;;;;79.32;29.73;;;;;;;;;;8359528;28;20036;-86
2022/10/12 18:06:45;;;;;;;99.85;27.75;;;;;;;;;;8365703;28;20103;-88
2022/10/12 18:11:19;;;;;;;98.53;26.67;;;;;;;;;;8355057;28;20045;-86
2022/10/12 18:15:32;;;;;;;165.40;43.55;;;;;;;;;;8367513;28;20041;-88
2022/10/12 18:20:08;;;;;;;103.47;29.10;;;;;;;;;;8367134;28;20047;-89
2022/10/12 18:24:16;;;;;;;89.75;26.83;;;;;;;;;;8360834;28;20064;-88
2022/10/12 18:28:20;;;;;;;175.82;40.20;;;;;;;;;;8346928;28;20473;-88
2022/10/12 18:32:23;;;;;;;177.85;43.35;;;;;;;;;;8361208;28;20405;-87
2022/10/12 18:36:28;;;;;;;236.25;72.25;;;;;;;;;;8364812;28;20510;-86
2022/10/12 18:40:33;;;;;;;118.32;41.80;;;;;;;;;;8359472;28;20546;-87
2022/10/12 18:44:39;;;;;;;219.50;70.22;;;;;;;;;;8357081;28;20459;-90
2022/10/12 18:48:42;;;;;;;287.75;106.50;;;;;;;;;;8356849;28;20037;-87
2022/10/12 18:52:48;;;;;;;265.50;102.43;;;;;;;;;;8365708;28;20115;-88
2022/10/12 18:56:51;;;;;;;206.70;87.90;;;;;;;;;;8348262;28;20522;-87
2022/10/12 19:00:54;;;;;;;251.10;113.28;;;;;;;;;;8348836;28;20045;-88
2022/10/12 19:04:59;;;;;;;227.27;110.30;;;;;;;;;;8366168;28;20063;-86
2022/10/12 19:09:07;;;;;;;167.68;84.28;;;;;;;;;;8365983;28;20056;-87
2022/10/12 19:13:13;;;;;;;121.95;66.82;;;;;;;;;;8365959;28;20480;-88
2022/10/12 19:17:18;;;;;;;112.20;50.03;;;;;;;;;;8365355;28;20045;-88
2022/10/12 19:21:23;;;;;;;116.57;58.65;;;;;;;;;;8366146;28;20041;-86
2022/10/12 19:25:30;;;;;;;81.05;41.45;;;;;;;;;;8361746;28;20044;-88
2022/10/12 19:29:35;;;;;;;62.60;29.30;;;;;;;;;;8357801;28;20044;-87
2022/10/12 19:33:39;;;;;;;60.67;26.75;;;;;;;;;;8350662;28;20480;-88
2022/10/12 19:37:42;;;;;;;39.05;20.30;;;;;;;;;;8353301;28;20048;-88
2022/10/12 19:41:47;;;;;;;33.80;19.15;;;;;;;;;;8362862;28;20064;-86
2022/10/12 19:45:51;;;;;;;29.55;15.07;;;;;;;;;;8355707;28;20040;-87
2022/10/12 19:49:56;;;;;;;22.83;12.20;;;;;;;;;;8362967;28;20045;-87
2022/10/12 19:54:03;;;;;;;22.48;11.80;;;;;;;;;;8334302;28;20053;-88
2022/10/12 19:58:07;;;;;;;25.25;12.50;;;;;;;;;;8364866;28;20041;-88
2022/10/12 20:02:11;;;;;;;543.72;184.25;;;;;;;;;;8342931;28;20052;-87
2022/10/12 20:06:16;;;;;;;256.40;88.28;;;;;;;;;;8364491;28;20041;-89
2022/10/12 20:10:19;;;;;;;233.45;99.15;;;;;;;;;;8358374;28;20042;-88
2022/10/12 20:14:24;;;;;;;137.45;64.43;;;;;;;;;;8361576;28;20448;-88
2022/10/12 20:18:27;;;;;;;97.22;42.13;;;;;;;;;;8360565;28;20709;-88
2022/10/12 20:22:30;;;;;;;89.65;42.05;;;;;;;;;;8363823;28;20132;-89
2022/10/12 20:26:33;;;;;;;84.07;35.83;;;;;;;;;;8363560;28;20067;-89
2022/10/12 20:30:38;;;;;;;69.13;27.00;;;;;;;;;;8346439;28;20060;-89
2022/10/12 20:34:40;;;;;;;83.32;31.75;;;;;;;;;;8363511;28;20483;-90
2022/10/12 20:38:43;;;;;;;67.15;23.98;;;;;;;;;;8357330;28;20045;-89
2022/10/12 20:42:46;;;;;;;80.75;24.98;;;;;;;;;;8363407;28;20045;-89
2022/10/12 20:46:51;;;;;;;63.17;19.40;;;;;;;;;;8363540;28;20408;-89
2022/10/12 20:50:53;;;;;;;64.30;21.90;;;;;;;;;;8363435;28;20554;-89
2022/10/12 20:54:56;;;;;;;62.30;20.45;;;;;;;;;;8355662;28;20045;-89
2022/10/12 20:58:59;;;;;;;101.55;26.05;;;;;;;;;;8359864;28;20041;-88
2022/10/12 21:03:03;;;;;;;44.25;22.25;;;;;;;;;;8361527;28;20079;-90
2022/10/12 21:07:05;;;;;;;44.85;19.48;;;;;;;;;;8358369;28;20052;-89
2022/10/12 21:11:09;;;;;;;32.40;15.82;;;;;;;;;;8363142;28;20055;-88
2022/10/12 21:15:11;;;;;;;62.92;21.63;;;;;;;;;;8363050;28;20396;-90
2022/10/12 21:19:16;;;;;;;45.22;20.92;;;;;;;;;;8362955;28;20037;-88
2022/10/12 21:23:19;;;;;;;33.88;16.45;;;;;;;;;;8363433;28;20041;-89
2022/10/12 21:27:21;;;;;;;29.55;13.80;;;;;;;;;;8362709;28;20048;-89
2022/10/12 21:31:24;;;;;;;26.55;14.40;;;;;;;;;;8362736;28;20045;-90
2022/10/12 21:35:28;;;;;;;38.35;18.08;;;;;;;;;;8357801;28;20055;-90
2022/10/12 21:39:30;;;;;;;39.03;17.27;;;;;;;;;;8367044;28;20049;-88
2022/10/12 21:43:33;;;;;;;36.17;16.00;;;;;;;;;;8369258;28;20051;-88
2022/10/12 21:47:36;;;;;;;24.73;10.88;;;;;;;;;;8369041;28;20405;-90
2022/10/12 21:51:40;;;;;;;31.77;13.38;;;;;;;;;;8368811;28;20056;-89
2022/10/12 21:55:42;;;;;;;28.08;12.48;;;;;;;;;;8368677;28;20512;-89
2022/10/12 21:59:47;;;;;;;30.45;13.77;;;;;;;;;;8350533;28;20056;-88
2022/10/12 22:03:53;;;;;;;21.77;11.55;;;;;;;;;;8354373;28;20512;-90
2022/10/12 22:07:57;;;;;;;20.77;10.65;;;;;;;;;;8357296;28;20057;-89
2022/10/12 22:11:59;;;;;;;24.25;11.40;;;;;;;;;;8366035;28;20048;-88
2022/10/12 22:16:03;;;;;;;20.45;9.85;;;;;;;;;;8359874;28;20045;-88
2022/10/12 22:20:07;;;;;;;20.00;10.80;;;;;;;;;;8363217;28;20478;-89
2022/10/12 22:24:11;;;;;;;29.88;12.90;;;;;;;;;;8364159;28;20049;-90
2022/10/12 22:28:14;;;;;;;19.65;10.15;;;;;;;;;;8363211;28;20045;-90
2022/10/12 22:32:16;;;;;;;35.85;17.80;;;;;;;;;;8352698;28;20445;-89
2022/10/12 22:36:19;;;;;;;32.13;14.75;;;;;;;;;;8366456;28;20558;-89
2022/10/12 22:40:23;;;;;;;33.05;13.88;;;;;;;;;;8358997;28;20045;-89
2022/10/12 22:44:26;;;;;;;40.78;17.13;;;;;;;;;;8347513;28;20083;-89
2022/10/12 22:48:29;;;;;;;41.88;19.75;;;;;;;;;;8358792;28;20056;-88
2022/10/12 22:52:32;;;;;;;50.95;25.58;;;;;;;;;;8360852;28;20041;-89
2022/10/12 22:56:36;;;;;;;34.20;18.65;;;;;;;;;;8357593;28;20073;-89
2022/10/12 23:00:39;;;;;;;36.40;18.95;;;;;;;;;;8364071;28;20045;-90
2022/10/12 23:04:42;;;;;;;45.22;21.05;;;;;;;;;;8343412;28;20493;-88
2022/10/12 23:08:45;;;;;;;37.28;18.40;;;;;;;;;;8360497;28;20049;-89
2022/10/12 23:12:49;;;;;;;37.13;17.05;;;;;;;;;;8359828;28;20041;-89
2022/10/12 23:16:51;;;;;;;41.08;21.30;;;;;;;;;;8354763;28;20048;-89
2022/10/12 23:20:54;;;;;;;39.20;19.88;;;;;;;;;;8350009;28;20040;-89
2022/10/12 23:24:56;;;;;;;35.80;17.45;;;;;;;;;;8363703;28;20073;-88
2022/10/12 23:29:00;;;;;;;29.70;13.70;;;;;;;;;;8365450;28;20053;-89
2022/10/12 23:33:03;;;;;;;36.15;17.05;;;;;;;;;;8359889;28;20045;-89
2022/10/12 23:37:05;;;;;;;35.50;17.77;;;;;;;;;;8358880;28;20036;-89
2022/10/12 23:41:09;;;;;;;43.38;21.02;;;;;;;;;;8363696;28;20481;-90
2022/10/12 23:45:13;;;;;;;34.00;16.25;;;;;;;;;;8364250;28;20423;-90
2022/10/12 23:49:16;;;;;;;37.97;16.92;;;;;;;;;;8342187;28;20087;-90
2022/10/12 23:53:19;;;;;;;39.10;16.98;;;;;;;;;;8360169;28;20041;-88
2022/10/12 23:57:21;;;;;;;31.20;15.10;;;;;;;;;;8359946;28;20401;-90
